Time;durP1;ratioP1;P1;durP2;ratioP2;P2;SDS_P1;SDS_P2;PMS_P1;PMS_P2;Temp;Humidity;BMP_temperature;BMP_pressure;BME280_temperature;BME280_humidity;BME280_pressure;Samples;Min_cycle;Max_cycle;Signal;HPM_P1;HPM_P2
2022/05/07 00:01:52;;;;;;;12.55;9.27;;;15.80;68.60;;;;;;5012513;28;20111;-72
2022/05/07 00:04:17;;;;;;;14.23;9.75;;;15.80;68.60;;;;;;5026710;28;20025;-72
2022/05/07 00:06:43;;;;;;;13.82;9.40;;;15.80;68.60;;;;;;5020872;28;20132;-72
2022/05/07 00:09:08;;;;;;;15.60;9.82;;;15.80;68.60;;;;;;5014532;28;20075;-72
2022/05/07 00:11:34;;;;;;;12.77;9.32;;;15.70;68.50;;;;;;5011169;28;20022;-71
2022/05/07 00:14:00;;;;;;;12.60;10.00;;;15.80;68.60;;;;;;5023281;28;20025;-71
2022/05/07 00:19:10;;;;;;;14.00;9.88;;;15.70;68.50;;;;;;5011966;28;20164;-72
2022/05/07 00:21:36;;;;;;;12.48;9.70;;;15.70;68.50;;;;;;5019073;28;20038;-72
2022/05/07 00:24:02;;;;;;;15.02;9.93;;;15.70;68.50;;;;;;5015520;28;20030;-72
2022/05/07 00:26:29;;;;;;;13.02;9.80;;;15.60;68.50;;;;;;5007938;28;20784;-72
2022/05/07 00:28:55;;;;;;;11.57;9.15;;;15.60;68.30;;;;;;5005014;28;21528;-72
2022/05/07 00:31:20;;;;;;;11.73;9.15;;;15.50;68.20;;;;;;5017996;28;20049;-72
2022/05/07 00:33:46;;;;;;;12.82;9.65;;;15.50;68.10;;;;;;5011209;28;20030;-72
2022/05/07 00:36:12;;;;;;;13.10;10.05;;;15.50;68.20;;;;;;5015770;28;20506;-71
2022/05/07 00:38:38;;;;;;;13.48;9.55;;;15.50;68.40;;;;;;5020842;28;20029;-71
2022/05/07 00:41:03;;;;;;;12.40;9.77;;;15.50;68.80;;;;;;5008325;28;20033;-71
2022/05/07 00:43:42;;;;;;;12.15;9.32;;;15.50;69.10;;;;;;5020509;28;20026;-71
2022/05/07 00:46:08;;;;;;;13.68;9.85;;;15.50;69.40;;;;;;5008737;28;20125;-71
2022/05/07 00:48:34;;;;;;;15.00;10.00;;;15.50;69.50;;;;;;5018543;28;20025;-71
2022/05/07 00:53:47;;;;;;;13.40;10.18;;;15.50;70.10;;;;;;5012209;28;20052;-71
2022/05/07 00:56:12;;;;;;;14.05;11.07;;;15.50;70.40;;;;;;5013884;28;20038;-71
2022/05/07 00:58:39;;;;;;;15.80;11.10;;;15.50;70.60;;;;;;5008392;28;20030;-72
2022/05/07 01:01:04;;;;;;;13.02;10.75;;;15.50;70.80;;;;;;5010948;28;20034;-71
2022/05/07 01:03:31;;;;;;;13.85;10.88;;;15.50;71.00;;;;;;5012905;28;20029;-72
2022/05/07 01:05:57;;;;;;;16.38;11.25;;;15.50;71.20;;;;;;5012415;28;20071;-72
2022/05/07 01:08:25;;;;;;;13.32;10.57;;;15.50;71.40;;;;;;5017635;28;20469;-72
2022/05/07 01:10:52;;;;;;;13.20;10.68;;;15.50;71.50;;;;;;5017547;28;20289;-71
2022/05/07 01:13:18;;;;;;;13.38;10.32;;;15.50;71.60;;;;;;5021954;28;20030;-72
2022/05/07 01:15:45;;;;;;;14.35;10.35;;;15.50;71.70;;;;;;5008982;28;20176;-71
2022/05/07 01:18:12;;;;;;;16.35;11.00;;;15.50;72.60;;;;;;5015170;28;20044;-71
2022/05/07 01:20:38;;;;;;;14.43;10.65;;;15.50;71.80;;;;;;5018660;28;20437;-72
2022/05/07 01:23:04;;;;;;;14.85;10.70;;;15.50;71.80;;;;;;5017729;28;20025;-72
2022/05/07 01:25:30;;;;;;;13.50;9.88;;;15.50;71.80;;;;;;5009972;28;20037;-71
2022/05/07 01:27:56;;;;;;;12.70;10.35;;;15.50;71.90;;;;;;5010151;28;20081;-72
2022/05/07 01:30:23;;;;;;;14.02;10.13;;;15.50;71.90;;;;;;5009671;28;20404;-72
2022/05/07 01:32:48;;;;;;;12.77;10.18;;;15.50;71.90;;;;;;5009957;28;20029;-72
2022/05/07 01:35:14;;;;;;;14.30;10.18;;;15.50;71.90;;;;;;5008771;28;20037;-72
2022/05/07 01:37:40;;;;;;;12.52;9.65;;;15.50;71.90;;;;;;5013865;28;20060;-71
2022/05/07 01:40:06;;;;;;;16.90;10.32;;;15.50;72.00;;;;;;5015948;28;20021;-71
2022/05/07 01:42:32;;;;;;;15.05;10.32;;;15.50;72.10;;;;;;5008620;28;20080;-72
2022/05/07 01:44:58;;;;;;;13.38;10.00;;;15.50;72.20;;;;;;5008242;28;20022;-72
2022/05/07 01:50:08;;;;;;;13.30;9.80;;;15.50;72.20;;;;;;5021484;28;20128;-72
2022/05/07 01:52:33;;;;;;;14.75;10.00;;;15.50;72.20;;;;;;5007795;28;20497;-72
2022/05/07 01:54:59;;;;;;;13.18;10.05;;;15.50;72.20;;;;;;5021113;28;20100;-72
2022/05/07 01:57:25;;;;;;;12.70;9.50;;;15.50;72.20;;;;;;5016299;28;20117;-71
2022/05/07 01:59:50;;;;;;;14.32;10.55;;;15.50;72.30;;;;;;5008048;28;20096;-72
2022/05/07 02:02:16;;;;;;;14.85;11.45;;;15.50;72.40;;;;;;5006774;28;20045;-72
2022/05/07 02:04:42;;;;;;;12.68;10.45;;;15.50;72.50;;;;;;5009396;28;20056;-72
2022/05/07 02:07:07;;;;;;;15.10;10.60;;;15.50;72.60;;;;;;5015176;28;20044;-71
2022/05/07 02:09:35;;;;;;;15.23;10.55;;;15.50;72.70;;;;;;5018039;28;20030;-72
2022/05/07 02:12:01;;;;;;;15.23;11.15;;;15.50;72.80;;;;;;5019071;28;20045;-72
2022/05/07 02:14:27;;;;;;;14.75;10.73;;;15.50;72.90;;;;;;5009702;28;20143;-72
2022/05/07 02:16:52;;;;;;;14.38;10.52;;;15.50;73.10;;;;;;5011018;28;20541;-72
2022/05/07 02:19:18;;;;;;;15.05;11.02;;;15.50;73.30;;;;;;5012868;28;20030;-72
2022/05/07 02:21:44;;;;;;;14.70;10.65;;;15.40;73.30;;;;;;5018953;28;20480;-71
2022/05/07 02:24:09;;;;;;;15.60;10.85;;;15.40;73.20;;;;;;5018203;28;20037;-71
2022/05/07 02:26:35;;;;;;;14.65;10.75;;;15.40;73.30;;;;;;5013088;28;20030;-72
2022/05/07 02:29:01;;;;;;;13.82;10.52;;;15.40;73.30;;;;;;5021148;28;20044;-71
2022/05/07 02:31:26;;;;;;;14.18;10.63;;;15.40;73.40;;;;;;5007357;28;20037;-71
2022/05/07 02:33:52;;;;;;;15.15;10.65;;;15.40;73.60;;;;;;5010708;28;20034;-72
2022/05/07 02:36:18;;;;;;;16.20;10.88;;;15.30;73.60;;;;;;5018467;28;20753;-71
2022/05/07 02:38:43;;;;;;;15.15;11.13;;;15.30;73.80;;;;;;5022949;28;20523;-72
2022/05/07 02:43:53;;;;;;;14.75;10.65;;;15.30;74.10;;;;;;5003410;28;20103;-72
2022/05/07 02:46:19;;;;;;;14.82;11.38;;;15.30;74.30;;;;;;5014572;28;20448;-72
2022/05/07 02:48:45;;;;;;;14.20;10.65;;;15.30;74.30;;;;;;5015548;28;20103;-72
2022/05/07 02:51:14;;;;;;;13.57;10.60;;;15.30;74.50;;;;;;5014137;28;20029;-72
2022/05/07 02:53:40;;;;;;;15.50;11.10;;;15.30;74.50;;;;;;5013154;28;20465;-72
2022/05/07 02:56:06;;;;;;;15.68;11.18;;;15.30;74.60;;;;;;5022227;28;20022;-71
2022/05/07 02:58:33;;;;;;;16.70;11.15;;;15.30;74.70;;;;;;5016539;28;20057;-72
2022/05/07 03:00:58;;;;;;;15.45;11.52;;;15.20;74.70;;;;;;5024896;28;20159;-72
2022/05/07 03:03:25;;;;;;;14.00;10.70;;;15.20;74.70;;;;;;5017335;28;20521;-72
2022/05/07 03:05:52;;;;;;;16.33;10.85;;;15.20;74.70;;;;;;5014049;28;20072;-72
2022/05/07 03:08:19;;;;;;;15.00;11.10;;;15.20;74.80;;;;;;5022354;28;20049;-72
2022/05/07 03:10:44;;;;;;;15.77;11.45;;;15.20;75.90;;;;;;5024617;28;20540;-72
2022/05/07 03:13:10;;;;;;;15.77;11.30;;;15.30;75.10;;;;;;5017509;28;20176;-72
2022/05/07 03:15:36;;;;;;;17.10;11.60;;;15.20;75.30;;;;;;5016049;28;20181;-72
2022/05/07 03:18:01;;;;;;;15.50;11.18;;;15.20;75.50;;;;;;5015802;28;20116;-72
2022/05/07 03:20:27;;;;;;;16.38;11.02;;;15.20;75.70;;;;;;5021505;28;20757;-72
2022/05/07 03:22:52;;;;;;;13.95;10.57;;;15.20;75.90;;;;;;5016050;28;20030;-72
2022/05/07 03:25:18;;;;;;;15.88;11.65;;;15.10;75.90;;;;;;5025576;28;20033;-72
2022/05/07 03:27:44;;;;;;;15.10;11.40;;;15.10;75.90;;;;;;5021547;28;20049;-72
2022/05/07 03:30:10;;;;;;;17.50;11.43;;;15.10;76.00;;;;;;5018080;28;20030;-72
2022/05/07 03:32:36;;;;;;;15.70;11.43;;;15.10;76.00;;;;;;5012011;28;20022;-72
2022/05/07 03:35:02;;;;;;;17.42;11.90;;;15.10;76.00;;;;;;5015778;28;20022;-72
2022/05/07 03:37:28;;;;;;;15.02;11.40;;;15.10;76.10;;;;;;5025831;28;20026;-72
2022/05/07 03:39:54;;;;;;;18.17;11.23;;;15.10;76.40;;;;;;5017277;28;20091;-71
2022/05/07 03:42:22;;;;;;;15.10;10.82;;;15.10;76.50;;;;;;5017923;28;20507;-72
2022/05/07 03:44:48;;;;;;;16.45;10.95;;;15.10;76.60;;;;;;5016887;28;20026;-72
2022/05/07 03:47:14;;;;;;;16.75;11.88;;;15.10;76.50;;;;;;5009154;28;20042;-72
2022/05/07 03:49:40;;;;;;;17.15;11.40;;;15.10;76.50;;;;;;5025970;28;20108;-72
2022/05/07 03:54:50;;;;;;;17.10;11.57;;;15.20;76.80;;;;;;5014687;28;20157;-71
2022/05/07 03:57:16;;;;;;;16.65;11.13;;;15.10;76.80;;;;;;5016781;28;20026;-72
2022/05/07 03:59:42;;;;;;;15.38;11.27;;;15.10;76.90;;;;;;5016652;28;20040;-72
2022/05/07 04:02:08;;;;;;;17.58;11.15;;;15.10;77.00;;;;;;5022558;28;20018;-71
2022/05/07 04:04:35;;;;;;;14.63;11.30;;;15.10;77.10;;;;;;5012686;28;20041;-72
2022/05/07 04:07:01;;;;;;;15.13;11.77;;;15.10;77.10;;;;;;5024270;28;20080;-72
2022/05/07 04:09:28;;;;;;;15.57;11.60;;;15.10;77.20;;;;;;5018917;28;20088;-71
2022/05/07 04:11:53;;;;;;;19.08;11.73;;;15.10;77.30;;;;;;5020631;28;20032;-72
2022/05/07 04:14:19;;;;;;;17.40;11.77;;;15.20;77.40;;;;;;5011014;28;20054;-72
2022/05/07 04:16:46;;;;;;;16.67;11.55;;;15.10;77.30;;;;;;5016543;28;20172;-72
2022/05/07 04:19:12;;;;;;;17.73;12.13;;;15.20;77.40;;;;;;5025165;28;20029;-72
2022/05/07 04:21:39;;;;;;;15.48;11.88;;;15.20;77.40;;;;;;5009301;28;20037;-72
2022/05/07 04:24:06;;;;;;;16.27;11.60;;;15.20;77.40;;;;;;5014720;28;20033;-72
2022/05/07 04:26:31;;;;;;;16.88;11.82;;;15.20;77.60;;;;;;5019260;28;20042;-72
2022/05/07 04:28:57;;;;;;;16.45;12.00;;;15.20;77.60;;;;;;5023756;28;20030;-72
2022/05/07 04:31:24;;;;;;;15.43;11.20;;;15.20;77.80;;;;;;5021626;28;20156;-72
2022/05/07 04:33:49;;;;;;;18.58;11.65;;;15.20;78.00;;;;;;5009244;28;20045;-72
2022/05/07 04:36:15;;;;;;;15.18;11.00;;;15.20;78.00;;;;;;5016079;28;20048;-72
2022/05/07 04:38:40;;;;;;;16.65;11.85;;;15.20;78.10;;;;;;5016173;28;20030;-72
2022/05/07 04:41:07;;;;;;;15.60;12.02;;;15.20;78.20;;;;;;5008289;28;20034;-72
2022/05/07 04:43:33;;;;;;;15.50;11.77;;;15.20;78.30;;;;;;5017516;28;20531;-72
2022/05/07 04:45:58;;;;;;;16.05;11.52;;;15.20;78.40;;;;;;5022586;28;20568;-72
2022/05/07 04:48:24;;;;;;;19.33;12.50;;;15.20;78.30;;;;;;5019597;28;20040;-72
2022/05/07 04:50:50;;;;;;;17.67;11.77;;;15.20;78.30;;;;;;5013218;28;20481;-72
2022/05/07 04:53:15;;;;;;;18.05;11.68;;;15.20;78.40;;;;;;5006368;28;20037;-72
2022/05/07 04:55:41;;;;;;;19.02;11.93;;;15.20;78.40;;;;;;5012674;28;20036;-72
2022/05/07 04:58:07;;;;;;;19.30;11.85;;;15.20;78.30;;;;;;5010289;28;20080;-72
2022/05/07 05:00:32;;;;;;;16.35;10.75;;;15.20;78.40;;;;;;5017512;28;20737;-72
2022/05/07 05:02:58;;;;;;;16.40;11.90;;;15.20;78.40;;;;;;5014513;28;20719;-72
2022/05/07 05:05:25;;;;;;;18.33;11.50;;;15.20;78.50;;;;;;5008650;28;20041;-72
2022/05/07 05:07:51;;;;;;;17.65;11.85;;;15.20;78.50;;;;;;5011695;28;20046;-71
2022/05/07 05:10:18;;;;;;;15.70;11.50;;;15.30;78.60;;;;;;5025305;28;20028;-72
2022/05/07 05:12:44;;;;;;;18.65;12.25;;;15.30;78.70;;;;;;5017226;28;20052;-71
2022/05/07 05:15:10;;;;;;;15.68;11.23;;;15.30;78.70;;;;;;5008804;28;20064;-71
2022/05/07 05:17:37;;;;;;;18.25;12.13;;;15.30;78.70;;;;;;5006303;28;20046;-70
2022/05/07 05:20:05;;;;;;;19.23;11.93;;;15.30;78.90;;;;;;5007795;28;20014;-71
2022/05/07 05:22:31;;;;;;;18.48;12.00;;;15.30;78.90;;;;;;5008099;28;20075;-70
2022/05/07 05:24:57;;;;;;;17.15;11.80;;;15.30;79.20;;;;;;5013414;28;20025;-69
2022/05/07 05:27:23;;;;;;;16.05;11.73;;;15.30;79.30;;;;;;5006511;28;20684;-71
2022/05/07 05:29:49;;;;;;;16.10;11.70;;;15.30;79.40;;;;;;5005749;28;20121;-70
2022/05/07 05:32:18;;;;;;;17.58;12.18;;;15.30;79.40;;;;;;5006089;28;20109;-70
2022/05/07 05:34:46;;;;;;;18.08;11.80;;;15.30;79.40;;;;;;5006203;28;20034;-70
2022/05/07 05:37:14;;;;;;;17.40;11.75;;;15.30;79.30;;;;;;5025064;28;20025;-70
2022/05/07 05:39:39;;;;;;;19.90;11.55;;;15.30;79.10;;;;;;5013255;28;20044;-73
2022/05/07 05:42:05;;;;;;;17.38;11.63;;;15.30;79.00;;;;;;5007944;28;20030;-71
2022/05/07 05:44:31;;;;;;;17.00;11.77;;;15.40;78.80;;;;;;5008734;28;20025;-72
2022/05/07 05:46:56;;;;;;;14.68;11.07;;;15.40;78.70;;;;;;5007698;28;20034;-71
2022/05/07 05:49:22;;;;;;;16.75;11.85;;;15.50;78.60;;;;;;5017590;28;20101;-70
2022/05/07 05:51:48;;;;;;;16.55;12.18;;;15.50;78.50;;;;;;5011223;28;20038;-70
2022/05/07 05:54:13;;;;;;;19.27;12.00;;;15.50;78.30;;;;;;5013389;28;20025;-70
2022/05/07 05:56:39;;;;;;;16.50;11.88;;;15.60;78.30;;;;;;5006625;28;20496;-72
2022/05/07 05:59:05;;;;;;;16.52;12.40;;;15.70;79.10;;;;;;5003275;28;20029;-72
2022/05/07 06:01:31;;;;;;;16.30;12.00;;;15.70;78.00;;;;;;5008538;28;20041;-71
2022/05/07 06:03:56;;;;;;;17.00;11.85;;;15.80;78.20;;;;;;5014198;28;21275;-72
2022/05/07 06:06:22;;;;;;;16.15;11.45;;;15.80;78.10;;;;;;5004036;28;20406;-73
2022/05/07 06:08:48;;;;;;;17.95;11.98;;;15.80;77.90;;;;;;5010632;28;20127;-72
2022/05/07 06:11:13;;;;;;;17.98;11.73;;;15.90;77.50;;;;;;5007763;28;20083;-71
2022/05/07 06:13:41;;;;;;;16.52;11.43;;;16.00;77.20;;;;;;5006755;28;31985;-72
2022/05/07 06:16:07;;;;;;;19.23;11.25;;;16.00;77.20;;;;;;5015950;28;20524;-74
2022/05/07 06:18:32;;;;;;;19.98;11.65;;;16.10;76.70;;;;;;5014183;28;20029;-73
2022/05/07 06:21:01;;;;;;;19.65;12.80;;;16.20;76.70;;;;;;5013963;28;20052;-71
2022/05/07 06:23:28;;;;;;;16.48;12.10;;;16.20;76.90;;;;;;5014964;28;20033;-72
2022/05/07 06:28:38;;;;;;;16.88;10.63;;;16.20;77.00;;;;;;5026903;28;20039;-72
2022/05/07 06:31:04;;;;;;;15.05;10.57;;;16.30;76.70;;;;;;5025994;28;20030;-72
2022/05/07 06:33:32;;;;;;;14.38;10.73;;;16.50;75.90;;;;;;5011463;28;20053;-71
2022/05/07 06:35:58;;;;;;;15.73;10.20;;;16.60;75.80;;;;;;5015610;28;20112;-72
2022/05/07 06:38:23;;;;;;;18.13;10.68;;;16.80;75.00;;;;;;5021683;28;20168;-72
2022/05/07 06:40:50;;;;;;;16.17;10.82;;;16.80;75.50;;;;;;5012567;28;20414;-72
2022/05/07 06:43:16;;;;;;;13.70;9.82;;;16.70;76.00;;;;;;5023889;28;20623;-72
2022/05/07 06:45:42;;;;;;;16.00;10.15;;;16.70;77.80;;;;;;5021655;28;20108;-72
2022/05/07 06:48:11;;;;;;;14.48;8.98;;;16.70;77.50;;;;;;5015155;28;20061;-71
2022/05/07 06:50:37;;;;;;;14.88;9.48;;;16.70;77.80;;;;;;5012683;28;20022;-72
2022/05/07 06:53:03;;;;;;;14.60;9.05;;;16.60;78.30;;;;;;5024697;28;20038;-72
2022/05/07 06:55:31;;;;;;;11.77;7.13;;;16.60;78.80;;;;;;5027021;28;20653;-72
2022/05/07 06:57:58;;;;;;;9.85;6.75;;;16.60;78.60;;;;;;5023759;28;20037;-72
2022/05/07 07:00:24;;;;;;;12.07;5.88;;;16.60;78.20;;;;;;5022122;28;20044;-72
2022/05/07 07:02:50;;;;;;;10.10;5.95;;;16.60;77.60;;;;;;5021487;28;20095;-72
2022/05/07 07:05:16;;;;;;;11.38;6.68;;;16.70;77.30;;;;;;5024276;28;20119;-72
2022/05/07 07:07:43;;;;;;;10.07;6.38;;;16.70;77.30;;;;;;5025862;28;20033;-72
2022/05/07 07:10:09;;;;;;;10.10;6.63;;;16.70;78.10;;;;;;5012434;28;20034;-72
2022/05/07 07:12:39;;;;;;;10.45;6.03;;;16.70;77.20;;;;;;5020080;28;20096;-72
2022/05/07 07:15:08;;;;;;;9.05;5.13;;;16.70;77.30;;;;;;5021190;28;20110;-72
2022/05/07 07:17:34;;;;;;;6.70;4.03;;;16.80;76.90;;;;;;5019172;28;20034;-72
2022/05/07 07:20:00;;;;;;;7.15;4.68;;;16.80;76.10;;;;;;5008530;28;20029;-70
2022/05/07 07:22:25;;;;;;;7.80;4.45;;;16.80;75.60;;;;;;5026219;28;20485;-72
2022/05/07 07:24:51;;;;;;;7.78;4.65;;;16.80;75.60;;;;;;5011418;28;20030;-72
2022/05/07 07:27:17;;;;;;;7.63;4.47;;;16.90;75.40;;;;;;5016860;28;20046;-73
2022/05/07 07:29:47;;;;;;;8.43;4.50;;;16.90;75.40;;;;;;5011972;28;20379;-73
2022/05/07 07:32:14;;;;;;;7.63;4.13;;;16.90;75.20;;;;;;5013117;28;20029;-73
2022/05/07 07:34:39;;;;;;;5.82;3.70;;;17.40;74.20;;;;;;5024729;28;20029;-73
2022/05/07 07:37:05;;;;;;;7.75;4.28;;;17.60;72.80;;;;;;5018229;28;20033;-72
2022/05/07 07:39:32;;;;;;;8.18;3.78;;;17.90;71.70;;;;;;5019857;28;20259;-73
2022/05/07 07:41:58;;;;;;;7.15;3.70;;;18.10;71.10;;;;;;5012138;28;20034;-73
2022/05/07 07:44:26;;;;;;;7.55;3.78;;;18.10;70.90;;;;;;5009409;28;20030;-72
2022/05/07 07:49:36;;;;;;;6.63;3.50;;;18.20;70.20;;;;;;5008770;28;20029;-72
2022/05/07 07:52:02;;;;;;;6.10;3.45;;;18.20;69.50;;;;;;5021136;28;20275;-72
2022/05/07 07:54:28;;;;;;;6.07;3.40;;;18.30;69.10;;;;;;5011929;28;20041;-72
2022/05/07 07:56:56;;;;;;;5.82;3.70;;;18.30;68.60;;;;;;5013189;28;20030;-72
2022/05/07 07:59:21;;;;;;;6.50;3.65;;;18.40;68.60;;;;;;5015472;28;20468;-72
2022/05/07 08:01:48;;;;;;;7.38;3.40;;;18.80;67.60;;;;;;5008006;28;20540;-72
2022/05/07 08:04:14;;;;;;;9.52;3.70;;;19.00;66.70;;;;;;5010664;28;20469;-72
2022/05/07 08:06:39;;;;;;;5.95;3.30;;;19.00;66.10;;;;;;5007149;28;20038;-72
2022/05/07 08:11:55;;;;;;;10.90;3.00;;;18.90;65.00;;;;;;5007753;28;20072;-72
2022/05/07 08:14:21;;;;;;;9.57;2.75;;;18.80;64.80;;;;;;5012337;28;20111;-72
2022/05/07 08:16:47;;;;;;;4.80;2.85;;;18.80;64.90;;;;;;5009109;28;20029;-72
2022/05/07 08:19:12;;;;;;;7.53;3.20;;;18.80;65.10;;;;;;5010221;28;20493;-72
2022/05/07 08:21:38;;;;;;;23.70;15.10;;;18.80;65.00;;;;;;5018781;28;20033;-72
2022/05/07 08:24:04;;;;;;;7.72;4.10;;;18.80;65.50;;;;;;5017632;28;20116;-72
2022/05/07 08:26:30;;;;;;;6.45;4.00;;;18.80;65.60;;;;;;5009362;28;20125;-72
2022/05/07 08:28:55;;;;;;;8.05;4.07;;;18.90;65.90;;;;;;5023565;28;20108;-72
2022/05/07 08:31:24;;;;;;;9.85;4.28;;;18.90;66.60;;;;;;5025243;28;20542;-72
2022/05/07 08:33:51;;;;;;;9.38;3.85;;;18.90;66.20;;;;;;5020070;28;20025;-72
2022/05/07 08:36:17;;;;;;;8.07;3.38;;;18.90;65.70;;;;;;5016185;28;20030;-72
2022/05/07 08:38:43;;;;;;;4.93;3.08;;;18.90;65.70;;;;;;5020878;28;20104;-72
2022/05/07 08:41:10;;;;;;;6.03;2.97;;;19.00;65.30;;;;;;5008541;28;20495;-72
2022/05/07 08:43:38;;;;;;;6.22;3.28;;;19.10;65.30;;;;;;5024217;28;20108;-72
2022/05/07 08:46:16;;;;;;;7.32;3.10;;;19.10;65.30;;;;;;5023648;28;20021;-72
2022/05/07 08:48:43;;;;;;;6.93;3.00;;;19.20;64.50;;;;;;5008727;28;20037;-72
2022/05/07 08:51:09;;;;;;;7.03;3.60;;;19.40;63.50;;;;;;5009471;28;20030;-72
2022/05/07 08:53:35;;;;;;;6.68;3.10;;;19.60;62.60;;;;;;5009422;28;20034;-72
2022/05/07 08:56:02;;;;;;;4.82;2.70;;;20.40;60.40;;;;;;5009270;28;20022;-73
2022/05/07 08:58:28;;;;;;;5.97;2.88;;;21.10;57.90;;;;;;5023849;28;20028;-73
2022/05/07 09:00:54;;;;;;;5.45;3.03;;;21.60;56.80;;;;;;5013681;28;20056;-73
2022/05/07 09:03:20;;;;;;;5.82;3.00;;;21.90;55.80;;;;;;5011455;28;20029;-73
2022/05/07 09:05:45;;;;;;;6.22;3.22;;;21.70;55.70;;;;;;5019483;28;20039;-73
2022/05/07 09:08:12;;;;;;;7.15;3.38;;;21.60;55.40;;;;;;5021265;28;20774;-73
2022/05/07 09:10:39;;;;;;;6.57;3.50;;;21.50;55.40;;;;;;5024147;28;20021;-73
2022/05/07 09:13:12;;;;;;;6.00;2.92;;;21.60;55.80;;;;;;5010795;28;20065;-73
2022/05/07 09:15:58;;;;;;;7.50;5.30;;;21.80;55.90;;;;;;5018096;28;20081;-73
2022/05/07 09:18:28;;;;;;;5.55;2.85;;;22.00;54.70;;;;;;5008192;28;20033;-73
2022/05/07 09:21:24;;;;;;;7.18;2.92;;;22.00;53.80;;;;;;5011730;28;20539;-73
2022/05/07 09:23:55;;;;;;;11.00;3.75;;;21.80;53.30;;;;;;5019085;28;20114;-73
2022/05/07 09:26:35;;;;;;;13.60;3.60;;;22.10;53.50;;;;;;5008976;28;20502;-74
2022/05/07 09:29:03;;;;;;;10.70;3.50;;;22.20;53.20;;;;;;4998531;28;20029;-73
2022/05/07 09:31:32;;;;;;;17.63;3.40;;;22.10;53.30;;;;;;5013999;28;20027;-74
2022/05/07 09:36:44;;;;;;;5.30;2.40;;;22.00;52.80;;;;;;5011011;28;20037;-71
2022/05/07 09:39:17;;;;;;;18.95;3.58;;;21.90;52.20;;;;;;5017812;28;20068;-71
2022/05/07 09:41:43;;;;;;;4.30;1.88;;;21.70;52.90;;;;;;5008369;28;20240;-71
2022/05/07 09:44:12;;;;;;;4.32;1.60;;;21.50;53.30;;;;;;5008741;28;20049;-71
2022/05/07 09:46:41;;;;;;;7.38;1.80;;;21.30;53.20;;;;;;5013741;28;20743;-71
2022/05/07 09:49:08;;;;;;;6.13;1.95;;;21.30;53.30;;;;;;5020008;28;20033;-71
2022/05/07 09:51:35;;;;;;;5.10;1.83;;;21.40;53.40;;;;;;5014959;28;20026;-71
2022/05/07 09:59:32;;;;;;;5.53;1.70;;;22.00;52.50;;;;;;5010974;28;20188;-72
2022/05/07 10:02:19;;;;;;;6.70;1.75;;;22.60;52.00;;;;;;5010374;28;20562;-73
2022/05/07 10:05:34;;;;;;;7.57;2.15;;;22.80;50.80;;;;;;5027778;28;20430;-73
2022/05/07 10:08:12;;;;;;;8.85;2.13;;;22.90;49.50;;;;;;5008411;28;20493;-72
2022/05/07 10:10:39;;;;;;;13.27;1.98;;;22.90;50.30;;;;;;5025040;28;20038;-72
2022/05/07 10:13:05;;;;;;;7.22;1.73;;;22.90;50.10;;;;;;5012047;28;20117;-72
2022/05/07 10:15:32;;;;;;;6.30;1.70;;;22.90;49.60;;;;;;5012052;28;20567;-75
2022/05/07 10:18:00;;;;;;;5.03;2.00;;;22.90;49.20;;;;;;5013316;28;20026;-73
2022/05/07 10:20:46;;;;;;;14.57;2.22;;;22.80;49.40;;;;;;5011147;28;20025;-72
2022/05/07 10:23:13;;;;;;;4.80;1.90;;;22.80;50.20;;;;;;5012732;28;20052;-72
2022/05/07 10:25:45;;;;;;;5.50;1.80;;;22.60;49.40;;;;;;5008521;28;20031;-70
2022/05/07 10:28:19;;;;;;;7.43;1.80;;;22.50;49.50;;;;;;5011475;28;20037;-71
2022/05/07 10:30:52;;;;;;;3.35;1.40;;;22.30;49.90;;;;;;5011630;28;20029;-71
2022/05/07 10:33:19;;;;;;;4.78;1.42;;;22.20;49.70;;;;;;5013379;28;20056;-71
2022/05/07 10:35:52;;;;;;;4.97;1.48;;;22.40;49.60;;;;;;5009152;28;20034;-71
2022/05/07 10:38:24;;;;;;;4.65;1.50;;;22.60;49.20;;;;;;5014340;28;20519;-74
2022/05/07 10:40:55;;;;;;;5.13;1.65;;;22.90;47.90;;;;;;5006630;28;20038;-71
2022/05/07 10:43:28;;;;;;;;;;;23.70;46.80;;;;;;5008883;28;20032;-72
2022/05/07 10:45:56;;;;;;;5.45;1.65;;;24.00;45.60;;;;;;5013920;28;19924;-73
2022/05/07 10:48:21;;;;;;;6.13;1.90;;;23.90;45.10;;;;;;5013274;28;20366;-71
2022/05/07 10:50:52;;;;;;;5.43;1.85;;;24.50;44.50;;;;;;5009610;28;20695;-72
2022/05/07 10:53:18;;;;;;;3.38;1.50;;;25.40;44.00;;;;;;5010392;28;20038;-71
2022/05/07 10:55:44;;;;;;;4.75;1.30;;;25.90;41.70;;;;;;5010119;28;26894;-75
2022/05/07 10:58:10;;;;;;;3.42;1.33;;;26.30;40.20;;;;;;5013909;28;20362;-73
2022/05/07 11:00:36;;;;;;;3.78;1.50;;;27.00;38.90;;;;;;5012503;28;20444;-73
2022/05/07 11:03:02;;;;;;;4.35;1.60;;;27.20;38.60;;;;;;5008558;28;20042;-73
2022/05/07 11:05:33;;;;;;;6.72;1.88;;;27.10;38.30;;;;;;5010329;28;20093;-71
2022/05/07 11:08:02;;;;;;;5.47;1.65;;;26.70;39.20;;;;;;5020529;28;20042;-72
2022/05/07 11:10:30;;;;;;;6.97;1.50;;;26.30;39.50;;;;;;5009666;28;20034;-73
2022/05/07 11:13:12;;;;;;;3.90;1.58;;;26.90;38.10;;;;;;5008575;28;20331;-74
2022/05/07 11:15:38;;;;;;;4.78;1.50;;;27.00;37.20;;;;;;5007450;28;20089;-72
2022/05/07 11:18:14;;;;;;;4.13;1.40;;;27.40;36.90;;;;;;5013727;28;20126;-72
2022/05/07 11:20:41;;;;;;;6.18;2.30;;;28.70;34.40;;;;;;5009784;28;20109;-72
2022/05/07 11:23:12;;;;;;;4.88;1.60;;;29.50;33.10;;;;;;5009809;28;20061;-73
2022/05/07 11:25:40;;;;;;;5.82;1.30;;;30.30;31.40;;;;;;5013014;28;20021;-73
2022/05/07 11:28:06;;;;;;;4.40;1.50;;;30.70;29.40;;;;;;5010195;28;20049;-73
2022/05/07 11:30:32;;;;;;;4.95;1.38;;;30.70;30.20;;;;;;5021234;28;20409;-73
2022/05/07 11:33:05;;;;;;;3.75;1.50;;;31.70;28.20;;;;;;5016174;28;20022;-74
2022/05/07 11:35:30;;;;;;;4.30;1.10;;;32.50;27.60;;;;;;5009535;28;20017;-73
2022/05/07 11:37:56;;;;;;;3.67;1.15;;;33.10;27.00;;;;;;5018266;28;20642;-74
2022/05/07 11:40:29;;;;;;;3.28;1.05;;;32.90;27.00;;;;;;5025011;28;20026;-75
2022/05/07 11:45:39;;;;;;;3.53;1.10;;;33.80;25.80;;;;;;5008952;28;20037;-74
2022/05/07 11:48:13;;;;;;;2.78;0.90;;;34.60;24.30;;;;;;5014691;28;20041;-74
2022/05/07 11:50:51;;;;;;;5.30;1.10;;;35.40;23.60;;;;;;5021527;28;20425;-74
2022/05/07 11:53:19;;;;;;;4.10;1.00;;;36.00;23.40;;;;;;5021601;28;20018;-74
2022/05/07 11:55:46;;;;;;;4.18;0.90;;;35.60;23.60;;;;;;5025799;28;20038;-74
2022/05/07 11:58:13;;;;;;;2.40;0.80;;;35.50;23.50;;;;;;5023842;28;20026;-73
2022/05/07 12:00:42;;;;;;;4.82;1.20;;;34.00;25.10;;;;;;5013863;28;20500;-73
2022/05/07 12:03:09;;;;;;;3.92;1.10;;;32.30;27.10;;;;;;5009854;28;20378;-73
2022/05/07 12:05:43;;;;;;;4.68;1.00;;;31.00;28.50;;;;;;5010894;28;20052;-72
2022/05/07 12:08:20;;;;;;;3.20;1.00;;;30.00;29.80;;;;;;5021854;28;20044;-73
2022/05/07 12:10:47;;;;;;;4.78;1.02;;;29.20;31.10;;;;;;5025640;28;20108;-72
2022/05/07 12:13:15;;;;;;;4.10;1.25;;;28.50;32.20;;;;;;5025937;28;20033;-72
2022/05/07 12:18:25;;;;;;;3.40;1.40;;;27.60;33.60;;;;;;5019870;28;20041;-72
2022/05/07 12:20:52;;;;;;;3.83;1.00;;;27.10;34.60;;;;;;5016240;28;20034;-72
2022/05/07 12:31:31;;;;;;;4.10;1.17;;;26.00;37.30;;;;;;5008382;28;20032;-72
2022/05/07 12:33:57;;;;;;;3.47;1.38;;;25.70;38.30;;;;;;5022835;28;20039;-72
2022/05/07 12:36:22;;;;;;;5.22;1.20;;;25.50;38.70;;;;;;5019873;28;20025;-72
2022/05/07 12:38:48;;;;;;;2.55;1.10;;;25.20;39.30;;;;;;5019734;28;20116;-72
2022/05/07 12:41:14;;;;;;;4.05;1.30;;;25.00;39.90;;;;;;5021584;28;20061;-72
2022/05/07 12:43:40;;;;;;;3.35;1.42;;;24.80;40.40;;;;;;5024690;28;20032;-72
2022/05/07 12:46:06;;;;;;;4.40;1.38;;;24.70;41.10;;;;;;5014311;28;20026;-72
2022/05/07 12:48:32;;;;;;;5.03;1.40;;;24.60;41.40;;;;;;5015808;28;20029;-72
2022/05/07 12:50:58;;;;;;;3.55;1.40;;;24.60;42.00;;;;;;5012658;28;20103;-72
2022/05/07 12:53:24;;;;;;;4.45;1.35;;;25.50;40.00;;;;;;5019794;28;20847;-72
2022/05/07 12:55:50;;;;;;;2.88;1.20;;;25.30;40.70;;;;;;5024623;28;20149;-72
2022/05/07 12:58:16;;;;;;;5.70;1.30;;;25.00;41.00;;;;;;5025029;28;20029;-73
2022/05/07 13:00:42;;;;;;;4.72;1.30;;;24.70;41.40;;;;;;5008573;28;20033;-72
2022/05/07 13:03:08;;;;;;;16.77;1.60;;;24.60;42.00;;;;;;5011441;28;20033;-73
2022/05/07 13:05:35;;;;;;;2.33;1.10;;;24.60;42.00;;;;;;5007963;28;20045;-72
2022/05/07 13:08:01;;;;;;;3.50;1.25;;;24.90;41.50;;;;;;5015423;28;20096;-72
2022/05/07 13:10:28;;;;;;;10.32;1.40;;;26.90;37.30;;;;;;5020603;28;20025;-72
2022/05/07 13:12:54;;;;;;;2.50;1.10;;;28.80;33.30;;;;;;5021642;28;20156;-73
2022/05/07 13:15:19;;;;;;;4.43;1.30;;;28.60;33.50;;;;;;5011735;28;20116;-72
2022/05/07 13:17:45;;;;;;;2.83;1.20;;;27.70;35.20;;;;;;5011312;28;20034;-72
2022/05/07 13:20:11;;;;;;;6.82;1.80;;;26.90;36.80;;;;;;5020189;28;20482;-72